CheckWX is a tool to help pilots better visualize weather data.  It is not intended as a substitute for an official pre-flight weather briefing.

17:45:50 UTC

WIPP TAF
Sultan Mahmud Badaruddin II Airport
Palembang-Sumatra Island, Indonesia
TAF WIPP 241700Z 2418/2518 32006KT 9999 SCT010 TEMPO 2420/2424 1500 BR TEMPO 2509/2513 1500 TSRA BKN010 FEW012CB

Mar-24@
18:00 UTC

Mar-24 @ 18:00 UTC

Mar-25@
18:00 UTC

Mar-25 @ 18:00 UTC

TAF WIPP 241700Z 2418/2518 32006KT 9999 SCT010
Wind
  • 320° at 6 KTS
Cloud Levels
  • Scattered at 1,000' AGL

Mar-24@
20:00 UTC

Mar-24 @ 20:00 UTC

Mar-25@
00:00 UTC

Mar-25 @ 00:00 UTC

TEMPO 2420/2424 1500 BR

Temporary

Temporary Changes expected for less than half the time period

Conditions
Mist

Mar-25@
09:00 UTC

Mar-25 @ 09:00 UTC

Mar-25@
13:00 UTC

Mar-25 @ 13:00 UTC

TEMPO 2509/2513 1500 TSRA BKN010 FEW012CB

Temporary

Temporary Changes expected for less than half the time period

Conditions
Thunderstorm, Rain
Cloud Levels
  • Broken at 1,000' AGL
  • Few at 1,200' AGL